Time;durP1;ratioP1;P1;durP2;ratioP2;P2;SDS_P1;SDS_P2;PMS_P1;PMS_P2;Temp;Humidity;BMP_temperature;BMP_pressure;BME280_temperature;BME280_humidity;BME280_pressure;Samples;Min_cycle;Max_cycle;Signal;HPM_P1;HPM_P2
2021/04/26 00:01:16;;;;;;;3.45;2.40;;;;;;;6.14;53.51;99776.72;1747717;81;21606;-61
2021/04/26 00:03:44;;;;;;;3.30;2.05;;;;;;;6.10;54.13;99784.36;1740862;81;21147;-61
2021/04/26 00:06:13;;;;;;;3.50;1.35;;;;;;;6.11;54.79;99791.86;1764969;81;21002;-59
2021/04/26 00:08:41;;;;;;;2.65;1.72;;;;;;;6.13;55.17;99791.95;1765265;81;21181;-60
2021/04/26 00:11:11;;;;;;;2.77;1.20;;;;;;;6.12;54.87;99797.50;1765188;80;21030;-61
2021/04/26 00:13:38;;;;;;;2.08;1.37;;;;;;;6.11;55.45;99799.87;1747803;81;21187;-61
2021/04/26 00:16:06;;;;;;;2.15;1.50;;;;;;;6.09;55.83;99804.63;1747801;81;21169;-62
2021/04/26 00:18:34;;;;;;;1.98;1.45;;;;;;;6.05;55.52;99797.55;1747729;81;21161;-60
2021/04/26 00:21:02;;;;;;;2.02;1.40;;;;;;;6.01;55.93;99811.03;1750097;81;21543;-61
2021/04/26 00:23:31;;;;;;;4.85;1.80;;;;;;;5.88;57.10;99806.31;1765530;80;21131;-61
2021/04/26 00:25:59;;;;;;;5.00;1.92;;;;;;;5.83;57.63;99815.45;1736712;81;21207;-61
2021/04/26 00:28:29;;;;;;;2.47;1.62;;;;;;;5.80;58.56;99814.05;1744235;81;21166;-64
2021/04/26 00:30:57;;;;;;;2.22;1.47;;;;;;;5.71;59.97;99816.65;1765755;81;21229;-61
2021/04/26 00:33:25;;;;;;;1.82;1.57;;;;;;;5.58;60.91;99808.22;1765001;81;21402;-63
2021/04/26 00:35:53;;;;;;;1.27;1.15;;;;;;;5.39;62.17;99807.81;1764958;81;21168;-61
2021/04/26 00:38:21;;;;;;;2.45;1.27;;;;;;;5.31;62.34;99805.92;1764966;81;21195;-61
2021/04/26 00:40:49;;;;;;;3.30;1.95;;;;;;;5.31;62.45;99815.25;1763958;81;21558;-62
2021/04/26 00:43:16;;;;;;;3.08;1.60;;;;;;;5.24;62.77;99808.09;1761584;81;21156;-62
2021/04/26 00:45:44;;;;;;;3.65;1.50;;;;;;;5.21;63.72;99821.03;1744672;81;21589;-61
2021/04/26 00:48:12;;;;;;;1.90;1.40;;;;;;;5.21;63.72;99821.03;1758000;80;21058;-62
2021/04/26 00:50:42;;;;;;;2.62;1.30;;;;;;;5.17;63.78;99821.98;1716456;82;21176;-61
2021/04/26 00:53:11;;;;;;;1.60;1.50;;;;;;;5.15;64.19;99820.03;1716227;82;21165;-61
2021/04/26 00:55:39;;;;;;;5.70;1.37;;;;;;;5.11;64.38;99814.00;1733268;82;21234;-62
2021/04/26 00:58:07;;;;;;;3.00;1.82;;;;;;;5.09;64.76;99806.20;1737938;81;21160;-63
2021/04/26 01:00:36;;;;;;;1.80;1.30;;;;;;;5.00;66.49;99804.81;1746578;81;21221;-63
2021/04/26 01:03:04;;;;;;;2.20;1.70;;;;;;;4.92;67.13;99806.90;1746321;81;21157;-61
2021/04/26 01:05:34;;;;;;;4.62;1.77;;;;;;;4.84;68.23;99810.63;1746334;81;21177;-63
2021/04/26 01:08:04;;;;;;;2.75;1.65;;;;;;;4.70;69.33;99809.03;1764423;81;21815;-62
2021/04/26 01:10:50;;;;;;;2.45;1.65;;;;;;;4.62;70.26;99810.56;1766456;81;21145;-61
2021/04/26 01:14:02;;;;;;;1.60;1.50;;;;;;;4.52;71.82;99802.17;1747984;81;21606;-62
2021/04/26 01:16:48;;;;;;;1.47;1.37;;;;;;;4.44;72.55;99801.08;1765462;81;21129;-60
2021/04/26 01:19:58;;;;;;;1.90;1.70;;;;;;;4.36;73.52;99788.27;1734291;82;21205;-63
2021/04/26 01:23:24;;;;;;;3.50;2.87;;;;;;;4.33;74.65;99772.72;1699143;81;21875;-62
2021/04/26 01:25:51;;;;;;;4.50;2.10;;;;;;;4.25;75.44;99772.95;1748994;80;21161;-63
2021/04/26 01:28:48;;;;;;;3.30;1.80;;;;;;;4.21;75.49;99766.91;1747652;81;21130;-60
2021/04/26 01:31:23;;;;;;;2.83;2.00;;;;;;;4.15;75.97;99765.06;1764830;81;21347;-61
2021/04/26 01:33:53;;;;;;;2.10;1.90;;;;;;;4.11;76.31;99771.83;1746206;81;21196;-62
2021/04/26 01:36:26;;;;;;;3.60;2.58;;;;;;;4.09;76.84;99777.35;1724939;81;21181;-62
2021/04/26 01:38:56;;;;;;;3.65;3.22;;;;;;;4.05;77.03;99781.45;1708317;82;21011;-64
2021/04/26 01:41:24;;;;;;;3.37;2.75;;;;;;;4.03;77.64;99769.39;1735087;82;21066;-60
2021/04/26 01:43:55;;;;;;;3.83;2.70;;;;;;;4.03;77.84;99754.22;1754027;79;21161;-63
2021/04/26 01:46:23;;;;;;;3.70;2.72;;;;;;;3.99;78.45;99749.00;1715435;81;21175;-60
2021/04/26 01:48:52;;;;;;;6.05;3.30;;;;;;;3.92;78.81;99753.02;1748461;81;21540;-61
2021/04/26 01:51:21;;;;;;;3.83;3.22;;;;;;;3.86;79.83;99751.17;1766079;81;21600;-61
2021/04/26 01:53:49;;;;;;;4.58;3.30;;;;;;;3.86;79.87;99746.36;1765500;81;21152;-61
2021/04/26 01:56:18;;;;;;;6.87;3.92;;;;;;;3.85;80.16;99741.54;1723954;81;21260;-59
2021/04/26 01:58:50;;;;;;;4.55;3.00;;;;;;;3.84;80.11;99743.07;1762153;80;22714;-60
2021/04/26 02:01:24;;;;;;;3.08;2.67;;;;;;;3.87;80.27;99748.00;1724702;82;21168;-62
2021/04/26 02:03:57;;;;;;;3.72;2.90;;;;;;;3.84;80.23;99746.55;1724578;82;21152;-60
2021/04/26 02:06:34;;;;;;;4.53;3.03;;;;;;;3.87;80.38;99742.67;1887966;76;22691;-61
2021/04/26 02:09:22;;;;;;;6.90;4.30;;;;;;;3.81;80.40;99742.98;1735874;78;21015;-61
2021/04/26 02:11:53;;;;;;;4.90;2.75;;;;;;;3.82;80.46;99737.97;1812347;78;21595;-60
2021/04/26 02:14:23;;;;;;;3.50;2.15;;;;;;;3.87;80.45;99730.20;1769723;80;21613;-59
2021/04/26 02:16:52;;;;;;;2.95;2.50;;;;;;;3.92;80.14;99727.74;1791271;78;21603;-61
2021/04/26 02:19:21;;;;;;;3.25;2.92;;;;;;;3.93;79.95;99729.89;1759310;80;21035;-61
2021/04/26 02:21:48;;;;;;;3.17;2.75;;;;;;;3.91;80.22;99732.75;1822419;78;20977;-63
2021/04/26 02:24:16;;;;;;;7.28;3.52;;;;;;;3.88;80.21;99737.67;1821083;78;22527;-61
2021/04/26 02:26:44;;;;;;;3.55;2.58;;;;;;;3.85;80.60;99740.21;1775697;78;21163;-62
2021/04/26 02:29:12;;;;;;;3.92;2.70;;;;;;;3.82;80.71;99741.97;1729109;81;21654;-60
2021/04/26 02:31:43;;;;;;;3.65;2.80;;;;;;;3.83;80.84;99739.62;1770005;80;21600;-62
2021/04/26 02:34:22;;;;;;;4.50;2.17;;;;;;;3.85;80.77;99736.73;1703051;82;21212;-61
2021/04/26 02:37:02;;;;;;;2.52;2.05;;;;;;;3.88;80.71;99731.02;1785152;80;21491;-63
2021/04/26 02:39:31;;;;;;;2.90;2.00;;;;;;;3.89;80.50;99729.46;1751252;80;21046;-60
2021/04/26 02:41:59;;;;;;;3.65;2.70;;;;;;;3.91;80.58;99727.42;1755064;80;21153;-59
2021/04/26 02:44:27;;;;;;;3.60;2.35;;;;;;;3.94;80.61;99715.03;1789976;80;21041;-58
2021/04/26 02:47:05;;;;;;;3.42;2.15;;;;;;;3.99;80.54;99714.92;1736701;81;21209;-59
2021/04/26 02:49:34;;;;;;;3.58;2.30;;;;;;;3.97;80.69;99707.16;1754239;81;21134;-60
2021/04/26 02:52:04;;;;;;;3.12;2.47;;;;;;;3.91;81.01;99706.66;1746043;82;21185;-60
2021/04/26 02:54:38;;;;;;;4.95;2.60;;;;;;;3.81;81.64;99704.92;1749207;79;21639;-59
2021/04/26 02:57:06;;;;;;;6.20;2.90;;;;;;;3.73;81.88;99701.97;1740010;81;21057;-59
2021/04/26 02:59:36;;;;;;;3.72;2.77;;;;;;;3.69;82.00;99698.59;1732653;81;21574;-61
2021/04/26 03:02:04;;;;;;;4.65;2.85;;;;;;;3.68;82.29;99696.45;1719319;82;21133;-61
2021/04/26 03:04:41;;;;;;;4.33;3.02;;;;;;;3.73;82.43;99683.86;1721240;81;21115;-60
2021/04/26 03:07:10;;;;;;;3.22;2.20;;;;;;;3.75;82.66;99673.81;1747849;82;21115;-60
2021/04/26 03:10:09;;;;;;;3.97;2.10;;;;;;;3.70;83.05;99657.66;1847278;76;22615;-61
2021/04/26 03:12:40;;;;;;;3.05;2.40;;;;;;;3.60;83.09;99647.44;1785739;79;21768;-60
2021/04/26 03:15:12;;;;;;;4.17;2.70;;;;;;;3.50;83.64;99645.73;1805369;79;22213;-59
2021/04/26 03:17:40;;;;;;;6.08;3.40;;;;;;;3.40;83.89;99644.81;1773292;79;21200;-60
2021/04/26 03:20:13;;;;;;;5.22;4.55;;;;;;;3.41;84.28;99648.26;1741160;81;21022;-61
2021/04/26 03:22:43;;;;;;;5.53;3.55;;;;;;;3.40;84.43;99638.67;1721432;82;21172;-60
2021/04/26 03:25:12;;;;;;;5.53;4.80;;;;;;;3.34;84.77;99636.31;1733152;80;21641;-60
2021/04/26 03:27:42;;;;;;;4.08;2.77;;;;;;;3.29;84.87;99632.63;1753874;80;21189;-68
2021/04/26 03:30:12;;;;;;;5.90;3.22;;;;;;;3.29;85.62;99643.26;1747749;81;21006;-61
2021/04/26 03:32:43;;;;;;;2.83;2.55;;;;;;;3.26;85.73;99642.35;1750643;80;21284;-63
2021/04/26 03:35:13;;;;;;;2.67;2.35;;;;;;;3.26;86.05;99652.98;1771215;80;21054;-61
2021/04/26 03:37:44;;;;;;;2.95;2.42;;;;;;;3.22;86.04;99657.86;1731556;80;21673;-61
2021/04/26 03:40:22;;;;;;;4.25;2.42;;;;;;;3.20;86.20;99669.73;1727097;80;21175;-61
2021/04/26 03:42:55;;;;;;;5.42;4.17;;;;;;;3.20;86.36;99675.86;1750279;81;21201;-59
2021/04/26 03:45:24;;;;;;;3.75;2.33;;;;;;;3.16;86.54;99678.63;1771267;81;21181;-62
2021/04/26 03:48:16;;;;;;;6.27;2.80;;;;;;;3.18;86.96;99679.22;1846399;76;23308;-63
2021/04/26 03:50:57;;;;;;;3.98;2.67;;;;;;;3.11;87.44;99671.77;1814383;79;20943;-64
2021/04/26 03:53:38;;;;;;;3.95;1.82;;;;;;;3.07;87.58;99666.02;1775225;79;22627;-61
2021/04/26 03:56:21;;;;;;;3.43;2.97;;;;;;;3.13;87.87;99660.91;1847277;76;22627;-61
2021/04/26 03:58:50;;;;;;;3.17;2.70;;;;;;;3.09;87.98;99667.16;1786448;79;21015;-62
2021/04/26 04:01:19;;;;;;;3.45;2.95;;;;;;;3.12;87.88;99664.62;1786475;79;22096;-64
2021/04/26 04:03:47;;;;;;;3.70;2.47;;;;;;;3.10;88.03;99665.31;1783554;79;20987;-62
2021/04/26 04:06:18;;;;;;;4.17;2.83;;;;;;;3.12;88.04;99660.09;1753711;79;21010;-61
2021/04/26 04:09:05;;;;;;;4.03;3.05;;;;;;;3.11;88.10;99653.17;1754870;80;21618;-62
2021/04/26 04:11:52;;;;;;;4.37;3.72;;;;;;;3.13;88.12;99666.23;1767411;79;21575;-67
2021/04/26 04:14:32;;;;;;;4.42;4.00;;;;;;;3.18;88.05;99669.09;1815687;79;22605;-61
2021/04/26 04:17:04;;;;;;;7.10;5.05;;;;;;;3.27;88.01;99673.20;1768073;79;22170;-61
2021/04/26 04:19:31;;;;;;;5.65;3.65;;;;;;;3.25;87.75;99676.08;1703367;82;21017;-60
2021/04/26 04:22:00;;;;;;;4.70;4.20;;;;;;;3.21;87.43;99684.66;1702701;82;21061;-61
2021/04/26 04:24:29;;;;;;;6.30;4.70;;;;;;;3.16;87.31;99683.94;1742634;80;21152;-62
2021/04/26 04:26:56;;;;;;;7.33;4.33;;;;;;;3.20;87.43;99680.36;1726036;81;21156;-61
2021/04/26 04:29:25;;;;;;;7.70;4.35;;;;;;;3.22;87.64;99672.98;1751119;81;21165;-61
2021/04/26 04:31:58;;;;;;;6.53;3.90;;;;;;;3.25;87.55;99669.94;1753579;81;21578;-60
2021/04/26 04:34:51;;;;;;;5.67;3.67;;;;;;;3.32;87.03;99672.08;1842236;75;22622;-60
2021/04/26 04:37:38;;;;;;;15.03;10.23;;;;;;;3.31;86.92;99675.78;1750339;80;21019;-60
2021/04/26 04:40:25;;;;;;;16.97;11.18;;;;;;;3.35;86.77;99673.02;1785054;80;22564;-61
2021/04/26 04:42:55;;;;;;;9.85;7.85;;;;;;;3.40;86.62;99671.39;1784877;80;21034;-61
2021/04/26 04:45:25;;;;;;;6.83;4.97;;;;;;;3.45;86.60;99672.11;1798471;79;21597;-62
2021/04/26 04:48:11;;;;;;;5.45;3.40;;;;;;;3.50;86.34;99670.98;1771359;79;20947;-61
2021/04/26 04:50:41;;;;;;;3.40;3.10;;;;;;;3.50;85.90;99667.79;1785268;79;21543;-59
2021/04/26 04:53:09;;;;;;;4.17;2.83;;;;;;;3.55;85.94;99663.19;1785315;79;21018;-60
2021/04/26 04:55:36;;;;;;;3.83;3.00;;;;;;;3.56;85.77;99666.16;1784509;79;21035;-62
2021/04/26 04:58:04;;;;;;;7.15;4.70;;;;;;;3.59;85.87;99675.08;1817005;79;21030;-60
2021/04/26 05:00:34;;;;;;;17.52;11.15;;;;;;;3.64;85.73;99677.11;1785451;79;21046;-60
2021/04/26 05:03:23;;;;;;;7.25;5.10;;;;;;;3.73;85.83;99675.37;1817061;78;21193;-62
2021/04/26 05:06:09;;;;;;;4.17;2.85;;;;;;;3.80;85.29;99674.02;1793029;78;21370;-64
2021/04/26 05:08:56;;;;;;;5.03;3.42;;;;;;;3.80;84.06;99679.34;1785599;79;21141;-61
2021/04/26 05:11:31;;;;;;;5.33;3.37;;;;;;;3.76;83.43;99685.59;1692144;82;21207;-60
2021/04/26 05:14:11;;;;;;;3.62;3.33;;;;;;;3.79;83.56;99685.70;1685952;82;21017;-61
2021/04/26 05:16:40;;;;;;;3.65;3.08;;;;;;;3.78;83.17;99686.21;1734825;82;21050;-61
2021/04/26 05:19:07;;;;;;;4.80;3.70;;;;;;;3.80;83.17;99681.48;1732134;82;21208;-61
2021/04/26 05:21:35;;;;;;;3.47;1.87;;;;;;;3.83;83.11;99674.44;1734897;82;21148;-61
2021/04/26 05:24:06;;;;;;;4.25;3.12;;;;;;;3.83;82.26;99668.30;1689221;83;21685;-63
2021/04/26 05:26:34;;;;;;;2.58;1.82;;;;;;;3.85;82.01;99664.39;1729984;80;21157;-62
2021/04/26 05:29:03;;;;;;;11.10;7.47;;;;;;;3.89;81.78;99662.12;1733212;80;21579;-61
2021/04/26 05:31:32;;;;;;;6.40;3.72;;;;;;;3.90;81.62;99664.59;1772279;79;21196;-60
2021/04/26 05:34:00;;;;;;;3.25;2.45;;;;;;;3.90;81.70;99664.59;1775640;80;21603;-63
2021/04/26 05:36:36;;;;;;;2.92;2.12;;;;;;;3.91;81.77;99667.56;1755737;80;21074;-61
2021/04/26 05:39:05;;;;;;;3.50;2.40;;;;;;;3.96;81.93;99674.92;1739375;81;21184;-62
2021/04/26 05:41:35;;;;;;;2.50;2.10;;;;;;;4.04;81.94;99680.52;1732180;81;21585;-63
2021/04/26 05:44:06;;;;;;;2.77;2.00;;;;;;;4.14;81.77;99684.91;1731204;82;22134;-61
2021/04/26 05:46:36;;;;;;;4.00;1.60;;;;;;;4.19;81.47;99681.93;1717056;82;21192;-60
2021/04/26 05:49:04;;;;;;;2.47;2.27;;;;;;;4.27;81.21;99684.88;1725475;83;21564;-62
2021/04/26 05:51:32;;;;;;;3.05;1.70;;;;;;;4.32;81.18;99683.22;1700161;83;21157;-61
2021/04/26 05:54:00;;;;;;;2.12;1.82;;;;;;;4.43;81.20;99674.28;1735326;81;21166;-61
2021/04/26 05:56:29;;;;;;;3.58;3.27;;;;;;;4.53;81.14;99666.16;1706566;82;21288;-60
2021/04/26 05:58:56;;;;;;;2.50;2.30;;;;;;;4.63;80.83;99667.86;1706408;82;21451;-62
2021/04/26 06:01:24;;;;;;;3.55;1.92;;;;;;;4.68;80.59;99664.55;1731092;82;21036;-59
2021/04/26 06:03:52;;;;;;;6.92;2.45;;;;;;;4.69;80.43;99667.02;1731087;82;21147;-62
2021/04/26 06:06:22;;;;;;;5.25;2.98;;;;;;;4.69;80.42;99663.53;1731297;81;21536;-62
2021/04/26 06:08:51;;;;;;;4.25;2.55;;;;;;;4.74;80.14;99672.53;1737591;81;22283;-62
2021/04/26 06:11:18;;;;;;;4.37;3.20;;;;;;;4.84;79.90;99668.07;1705921;82;21210;-62
2021/04/26 06:13:46;;;;;;;2.30;2.08;;;;;;;4.96;79.34;99667.68;1748994;82;21129;-60
2021/04/26 06:16:15;;;;;;;2.55;2.25;;;;;;;5.07;78.74;99667.52;1730838;82;21048;-60
2021/04/26 06:18:43;;;;;;;2.25;2.05;;;;;;;5.18;77.13;99672.17;1749160;82;21101;-62
2021/04/26 06:21:11;;;;;;;2.45;2.15;;;;;;;5.17;75.72;99668.69;1729696;82;21922;-60
2021/04/26 06:23:38;;;;;;;2.55;2.05;;;;;;;5.12;75.51;99674.36;1752216;79;21149;-60
2021/04/26 06:26:06;;;;;;;2.90;2.20;;;;;;;5.14;75.74;99669.09;1730446;82;21146;-63
2021/04/26 06:28:34;;;;;;;3.00;2.10;;;;;;;5.16;75.86;99667.05;1721373;81;21190;-61
2021/04/26 06:31:01;;;;;;;4.53;2.75;;;;;;;5.13;76.13;99664.01;1747466;81;21139;-62
2021/04/26 06:33:29;;;;;;;2.25;2.05;;;;;;;5.13;76.12;99660.80;1759492;81;22124;-60
2021/04/26 06:35:58;;;;;;;3.08;2.40;;;;;;;5.15;75.93;99668.59;1755631;81;21033;-61
2021/04/26 06:38:26;;;;;;;3.22;2.20;;;;;;;5.18;75.62;99670.30;1755972;81;21128;-61
2021/04/26 06:40:54;;;;;;;3.25;2.12;;;;;;;5.28;75.59;99673.31;1755921;81;21168;-60
2021/04/26 06:43:22;;;;;;;3.67;2.15;;;;;;;5.35;74.90;99669.27;1755994;81;21120;-60
2021/04/26 06:45:51;;;;;;;3.77;2.70;;;;;;;5.31;73.91;99669.41;1756005;81;22053;-61
2021/04/26 06:48:19;;;;;;;3.25;2.40;;;;;;;5.30;73.71;99664.28;1729039;81;21164;-64
2021/04/26 06:50:47;;;;;;;2.55;2.35;;;;;;;5.38;73.73;99667.50;1750238;81;21672;-60
2021/04/26 06:53:16;;;;;;;1.50;1.40;;;;;;;5.46;73.57;99669.92;1730259;81;21175;-63
2021/04/26 06:55:45;;;;;;;4.05;2.70;;;;;;;5.52;72.95;99670.88;1700672;83;21672;-62
2021/04/26 06:58:13;;;;;;;4.67;3.72;;;;;;;5.57;72.22;99671.04;1700703;83;21037;-64
2021/04/26 07:00:40;;;;;;;2.52;1.90;;;;;;;5.61;71.95;99667.72;1712927;83;21139;-61
2021/04/26 07:03:08;;;;;;;2.67;1.70;;;;;;;5.67;71.16;99666.86;1756081;80;21034;-60
2021/04/26 07:05:35;;;;;;;4.12;1.92;;;;;;;5.74;70.86;99668.66;1700751;83;21252;-61
2021/04/26 07:08:04;;;;;;;4.60;3.45;;;;;;;5.80;70.79;99668.61;1686365;83;21175;-61
2021/04/26 07:10:33;;;;;;;4.55;2.45;;;;;;;5.84;68.86;99664.97;1673892;84;21271;-61
2021/04/26 07:13:01;;;;;;;3.08;2.72;;;;;;;5.78;68.90;99673.33;1658447;85;21160;-61
2021/04/26 07:15:30;;;;;;;2.00;1.90;;;;;;;5.82;68.98;99674.52;1684395;85;21187;-62
2021/04/26 07:17:57;;;;;;;7.60;6.10;;;;;;;5.87;68.18;99663.22;1684669;83;21116;-63
2021/04/26 07:20:25;;;;;;;3.08;2.70;;;;;;;5.89;68.74;99657.98;1712993;83;21175;-63
2021/04/26 07:22:53;;;;;;;4.80;2.35;;;;;;;5.96;68.62;99672.58;1681796;84;21180;-62
2021/04/26 07:25:21;;;;;;;2.90;2.00;;;;;;;6.03;68.53;99667.48;1712951;83;21171;-62
2021/04/26 07:27:49;;;;;;;4.90;2.33;;;;;;;6.10;68.29;99666.88;1688888;83;21026;-62
2021/04/26 07:30:17;;;;;;;4.08;2.60;;;;;;;6.16;68.12;99667.03;1712952;83;21040;-63
2021/04/26 07:32:45;;;;;;;4.17;2.45;;;;;;;6.16;67.87;99669.19;1700006;83;21235;-61
2021/04/26 07:35:14;;;;;;;3.58;2.33;;;;;;;6.16;67.81;99673.71;1758228;81;23498;-62
2021/04/26 07:37:42;;;;;;;3.17;2.45;;;;;;;6.15;67.51;99660.88;1707374;83;21238;-62
2021/04/26 07:40:13;;;;;;;4.37;2.42;;;;;;;6.17;67.39;99666.00;1697968;84;20963;-62
2021/04/26 07:42:42;;;;;;;4.78;2.55;;;;;;;6.18;67.15;99658.30;1727181;83;21635;-62
2021/04/26 07:45:12;;;;;;;5.62;2.10;;;;;;;6.19;67.27;99660.73;1727109;83;21080;-60
2021/04/26 07:47:42;;;;;;;2.67;2.47;;;;;;;6.26;65.74;99664.16;1726573;83;22363;-62
2021/04/26 07:50:12;;;;;;;2.70;2.20;;;;;;;6.34;64.67;99657.17;1703186;82;21182;-60
2021/04/26 07:52:40;;;;;;;5.45;2.62;;;;;;;6.42;64.12;99660.08;1693821;84;21600;-60
2021/04/26 07:55:09;;;;;;;4.05;2.27;;;;;;;6.46;64.10;99661.26;1748265;80;21074;-62
2021/04/26 07:57:37;;;;;;;3.20;2.10;;;;;;;6.54;63.18;99668.96;1746371;82;21191;-61
2021/04/26 08:00:07;;;;;;;1.50;1.40;;;;;;;6.60;60.83;99657.38;1703575;83;21212;-61
2021/04/26 08:02:36;;;;;;;3.87;2.20;;;;;;;6.69;60.15;99664.05;1755100;81;21150;-60
2021/04/26 08:05:05;;;;;;;3.60;2.40;;;;;;;6.76;58.99;99658.08;1777045;80;20968;-63
2021/04/26 08:07:33;;;;;;;5.53;2.33;;;;;;;6.85;58.59;99648.73;1751733;80;21619;-63
2021/04/26 08:10:01;;;;;;;1.92;1.80;;;;;;;6.95;58.10;99649.53;1736550;80;21149;-65
2021/04/26 08:12:30;;;;;;;1.72;1.62;;;;;;;7.01;55.49;99648.08;1748778;80;21164;-62
2021/04/26 08:14:59;;;;;;;2.70;2.30;;;;;;;7.06;55.45;99651.92;1722646;82;21149;-61
2021/04/26 08:17:27;;;;;;;1.98;1.52;;;;;;;7.09;55.75;99650.15;1746249;82;21175;-61
2021/04/26 08:19:55;;;;;;;2.35;1.57;;;;;;;7.12;54.52;99649.16;1728691;83;21167;-63
2021/04/26 08:22:24;;;;;;;3.27;2.12;;;;;;;7.18;54.24;99648.78;1726604;83;21165;-61
2021/04/26 08:24:52;;;;;;;2.27;1.50;;;;;;;7.22;54.21;99653.95;1746257;82;21271;-61
2021/04/26 08:27:20;;;;;;;4.42;1.75;;;;;;;7.19;51.99;99651.23;1715625;83;21313;-62
2021/04/26 08:29:47;;;;;;;2.92;1.62;;;;;;;7.15;51.39;99647.36;1734163;81;21155;-61
2021/04/26 08:32:15;;;;;;;3.92;1.80;;;;;;;7.18;52.00;99649.59;1737745;82;21169;-62
2021/04/26 08:34:43;;;;;;;3.25;2.60;;;;;;;7.21;51.98;99657.15;1719835;83;21163;-63
2021/04/26 08:37:11;;;;;;;2.17;1.97;;;;;;;7.27;51.41;99655.42;1724744;82;21500;-62
2021/04/26 08:39:39;;;;;;;5.72;3.58;;;;;;;7.31;51.61;99657.41;1749772;82;21135;-62
2021/04/26 08:42:09;;;;;;;3.25;2.00;;;;;;;7.34;50.71;99665.48;1744483;81;21256;-61
2021/04/26 08:44:37;;;;;;;2.30;1.75;;;;;;;7.21;48.94;99657.67;1720110;82;21620;-62
2021/04/26 08:47:06;;;;;;;3.35;2.27;;;;;;;7.19;50.05;99650.41;1720659;82;21191;-60
2021/04/26 08:49:35;;;;;;;2.17;1.72;;;;;;;7.25;50.13;99642.79;1743233;81;22147;-62
2021/04/26 08:52:04;;;;;;;5.33;2.20;;;;;;;7.33;50.14;99641.14;1721792;82;21135;-61
2021/04/26 08:54:32;;;;;;;3.72;2.55;;;;;;;7.38;50.55;99642.09;1725606;82;21108;-62
2021/04/26 08:57:00;;;;;;;2.27;2.08;;;;;;;7.40;49.97;99652.02;1755414;80;21157;-62
2021/04/26 08:59:29;;;;;;;1.82;1.72;;;;;;;7.44;49.57;99647.02;1784457;80;21113;-61
2021/04/26 09:02:05;;;;;;;3.72;2.62;;;;;;;7.48;49.11;99650.06;1766096;80;21216;-61
2021/04/26 09:04:37;;;;;;;3.95;2.02;;;;;;;7.45;49.09;99652.14;1719735;82;21159;-66
2021/04/26 09:07:10;;;;;;;1.67;1.50;;;;;;;7.55;46.95;99644.06;1719738;82;21164;-62
2021/04/26 09:09:44;;;;;;;2.02;1.42;;;;;;;7.64;46.04;99648.84;1722432;80;21195;-62
2021/04/26 09:12:24;;;;;;;2.35;1.90;;;;;;;7.75;46.88;99642.70;1739130;80;21181;-63
2021/04/26 09:15:11;;;;;;;2.62;2.12;;;;;;;7.91;47.56;99639.03;1769090;80;21195;-62
2021/04/26 09:17:41;;;;;;;3.52;2.08;;;;;;;8.07;46.64;99646.34;1784217;80;21050;-61
2021/04/26 09:20:22;;;;;;;2.02;1.40;;;;;;;8.16;44.26;99639.57;1753350;80;21038;-63
2021/04/26 09:22:55;;;;;;;1.67;1.12;;;;;;;8.23;43.03;99641.09;1784580;80;21101;-61
2021/04/26 09:25:42;;;;;;;2.42;2.15;;;;;;;8.26;40.33;99633.91;1781741;80;21560;-63
2021/04/26 09:28:12;;;;;;;3.02;2.33;;;;;;;8.22;39.51;99636.77;1779227;80;21242;-62
2021/04/26 09:30:56;;;;;;;5.28;3.60;;;;;;;8.23;40.43;99637.59;1781608;80;21564;-63
2021/04/26 09:33:34;;;;;;;1.67;1.50;;;;;;;8.22;40.23;99644.00;1765410;80;21189;-61
2021/04/26 09:36:18;;;;;;;2.20;1.47;;;;;;;8.17;39.22;99625.13;1734007;81;21131;-61
2021/04/26 09:38:52;;;;;;;2.08;1.40;;;;;;;8.19;39.62;99631.08;1758454;81;21111;-62
2021/04/26 09:41:25;;;;;;;1.25;1.15;;;;;;;8.23;39.46;99638.41;1763326;80;21133;-62
2021/04/26 09:44:09;;;;;;;4.33;2.17;;;;;;;8.33;40.21;99638.36;1789463;80;21222;-61
2021/04/26 09:49:27;;;;;;;3.42;2.15;;;;;;;8.47;37.32;99657.14;1847036;76;28208;-60
2021/04/26 09:51:59;;;;;;;5.83;1.40;;;;;;;8.37;37.93;99647.55;1817093;79;20967;-61
2021/04/26 09:54:42;;;;;;;2.92;1.65;;;;;;;8.31;38.24;99650.13;1810951;79;21587;-59
2021/04/26 09:57:12;;;;;;;1.30;1.10;;;;;;;8.26;38.93;99647.30;1814807;79;21181;-61
2021/04/26 09:59:40;;;;;;;1.05;0.90;;;;;;;8.24;39.33;99649.95;1785432;79;21023;-61
2021/04/26 10:02:08;;;;;;;2.35;1.67;;;;;;;8.22;39.45;99653.38;1785337;79;21066;-61
2021/04/26 10:04:37;;;;;;;1.15;1.05;;;;;;;8.21;39.93;99649.87;1777366;79;21043;-62
2021/04/26 10:07:05;;;;;;;1.57;1.45;;;;;;;8.20;39.71;99652.25;1801686;79;21179;-62
2021/04/26 10:09:37;;;;;;;4.25;1.60;;;;;;;8.23;39.82;99648.31;1809889;79;20995;-63
2021/04/26 10:12:10;;;;;;;2.05;1.50;;;;;;;8.27;38.60;99642.77;1805483;77;20936;-65
2021/04/26 10:14:40;;;;;;;2.27;1.82;;;;;;;8.36;38.03;99647.26;1795890;78;21059;-62
2021/04/26 10:17:11;;;;;;;1.72;1.40;;;;;;;8.43;37.65;99643.41;1792644;79;21186;-63
2021/04/26 10:19:46;;;;;;;1.80;1.40;;;;;;;8.52;37.63;99635.29;1790824;79;21154;-65
2021/04/26 10:22:37;;;;;;;1.87;1.70;;;;;;;8.59;37.65;99639.97;1791607;78;21582;-63
2021/04/26 10:25:07;;;;;;;5.50;2.25;;;;;;;8.70;38.24;99645.02;1781351;79;20986;-65
2021/04/26 10:27:43;;;;;;;2.58;1.62;;;;;;;8.87;37.96;99649.92;1768050;79;21526;-67
2021/04/26 10:30:16;;;;;;;1.37;1.27;;;;;;;8.98;38.03;99658.42;1749453;81;21153;-66
2021/04/26 10:33:02;;;;;;;1.37;1.22;;;;;;;9.03;38.31;99634.38;1701020;80;21074;-66
2021/04/26 10:35:46;;;;;;;1.72;1.32;;;;;;;9.11;38.24;99640.67;1675146;84;21227;-64
2021/04/26 10:38:46;;;;;;;1.90;1.30;;;;;;;9.17;35.86;99650.45;1720516;83;21155;-63
2021/04/26 10:41:53;;;;;;;1.05;1.00;;;;;;;9.24;35.40;99662.39;1705352;84;21188;-65
2021/04/26 10:44:47;;;;;;;1.85;0.98;;;;;;;9.28;34.40;99647.95;1670933;83;21200;-62
2021/04/26 10:47:25;;;;;;;1.30;1.20;;;;;;;9.29;34.39;99638.85;1716707;83;21200;-63
2021/04/26 10:50:08;;;;;;;5.95;1.50;;;;;;;9.42;34.73;99631.81;1717389;82;21576;-64
2021/04/26 10:52:40;;;;;;;1.77;1.20;;;;;;;9.61;32.58;99654.68;1701079;82;21599;-62
2021/04/26 10:55:13;;;;;;;2.90;2.25;;;;;;;9.66;32.00;99625.23;1714713;82;28698;-62
2021/04/26 10:57:58;;;;;;;1.47;1.37;;;;;;;9.48;32.77;99649.12;1692844;83;21132;-61
2021/04/26 11:00:37;;;;;;;2.35;0.80;;;;;;;9.41;33.94;99651.66;1692911;84;21601;-64
2021/04/26 11:03:11;;;;;;;2.17;1.22;;;;;;;9.34;35.18;99649.67;1715040;82;21116;-64
2021/04/26 11:05:43;;;;;;;0.80;0.78;;;;;;;9.26;35.24;99652.73;1728452;82;21578;-60
2021/04/26 11:11:25;;;;;;;1.47;1.20;;;;;;;9.01;36.60;99647.75;1843931;76;28265;-66
2021/04/26 11:13:54;;;;;;;1.80;1.35;;;;;;;8.95;35.09;99646.84;1772414;79;21035;-63
2021/04/26 11:16:29;;;;;;;1.40;1.25;;;;;;;8.93;34.20;99646.78;1772235;79;21166;-62
2021/04/26 11:19:09;;;;;;;1.17;0.93;;;;;;;8.92;34.04;99646.52;1774349;79;21383;-62
2021/04/26 11:21:49;;;;;;;1.30;1.20;;;;;;;8.89;33.86;99646.97;1794021;79;21014;-62
2021/04/26 11:24:38;;;;;;;19.67;3.15;;;;;;;8.85;34.33;99667.28;1763358;80;21014;-64
2021/04/26 11:27:15;;;;;;;1.92;1.52;;;;;;;8.73;33.64;99660.09;1743473;80;21073;-63
2021/04/26 11:29:49;;;;;;;2.33;1.40;;;;;;;8.72;34.53;99652.30;1765739;80;21637;-64
2021/04/26 11:32:19;;;;;;;2.15;1.60;;;;;;;8.74;34.91;99660.91;1765555;80;21046;-64
2021/04/26 11:34:56;;;;;;;1.00;0.90;;;;;;;8.71;34.28;99663.55;1673564;84;21660;-65
2021/04/26 11:37:27;;;;;;;1.05;1.02;;;;;;;8.71;34.13;99660.05;1718940;83;21184;-63
2021/04/26 11:39:56;;;;;;;1.30;1.20;;;;;;;8.70;33.98;99635.10;1704432;83;21195;-64
2021/04/26 11:42:33;;;;;;;1.57;1.30;;;;;;;8.70;35.11;99673.16;1690856;83;22748;-64
2021/04/26 11:45:09;;;;;;;3.17;1.12;;;;;;;8.64;35.67;99688.84;1731136;82;20993;-61
2021/04/26 11:47:37;;;;;;;2.10;1.90;;;;;;;8.52;36.13;99683.53;1704394;84;20993;-63
2021/04/26 11:50:07;;;;;;;1.45;1.10;;;;;;;8.47;36.42;99679.41;1706107;83;21191;-64
2021/04/26 11:52:36;;;;;;;1.57;1.47;;;;;;;8.48;36.42;99670.32;1703995;83;21177;-63
2021/04/26 11:55:17;;;;;;;4.33;1.17;;;;;;;8.51;36.58;99676.54;1718895;83;21702;-64
2021/04/26 11:57:55;;;;;;;0.88;0.88;;;;;;;8.54;35.48;99677.91;1651244;84;21219;-61
2021/04/26 12:00:31;;;;;;;1.98;1.20;;;;;;;8.56;35.85;99660.56;1662500;84;21150;-63
2021/04/26 12:03:11;;;;;;;1.57;1.20;;;;;;;8.65;36.45;99659.66;1704989;84;21148;-63
2021/04/26 12:05:40;;;;;;;1.80;1.35;;;;;;;8.78;36.50;99656.69;1714387;83;21590;-62
2021/04/26 12:08:07;;;;;;;1.60;1.50;;;;;;;8.88;36.14;99659.57;1703487;82;21233;-61
2021/04/26 12:10:41;;;;;;;2.25;1.40;;;;;;;8.98;35.64;99658.95;1705190;82;21207;-61
2021/04/26 12:13:09;;;;;;;1.47;1.37;;;;;;;9.07;35.57;99640.88;1725275;82;21127;-61